Time;durP1;ratioP1;P1;durP2;ratioP2;P2;SDS_P1;SDS_P2;PMS_P1;PMS_P2;Temp;Humidity;BMP_temperature;BMP_pressure;BME280_temperature;BME280_humidity;BME280_pressure;Samples;Min_cycle;Max_cycle;Signal;HPM_P1;HPM_P2
2023/03/31 00:00:11;;;;;;;11.90;7.00;;;;;;;10.41;81.10;99048.98;131103;1263;107293;-71
2023/03/31 00:03:42;;;;;;;7.30;5.60;;;;;;;10.41;80.81;99050.73;131093;1259;110274;-71
2023/03/31 00:06:47;;;;;;;8.80;6.10;;;;;;;10.43;81.10;99045.78;131200;1251;107244;-72
2023/03/31 00:09:56;;;;;;;9.40;6.60;;;;;;;10.47;80.57;99039.63;131073;1254;107596;-72
2023/03/31 00:13:02;;;;;;;7.70;6.50;;;;;;;10.51;80.78;99040.73;131252;1257;107237;-74
2023/03/31 00:16:10;;;;;;;11.70;6.60;;;;;;;10.54;80.83;99042.33;131154;1253;107450;-71
2023/03/31 00:19:18;;;;;;;9.80;6.80;;;;;;;10.54;80.90;99044.61;131163;1256;107390;-71
2023/03/31 00:22:26;;;;;;;9.20;6.20;;;;;;;10.52;81.06;99047.31;131173;1263;107423;-71
2023/03/31 00:25:32;;;;;;;8.70;5.80;;;;;;;10.52;81.11;99048.77;131196;1256;107247;-72
2023/03/31 00:28:37;;;;;;;9.60;7.00;;;;;;;10.53;80.86;99050.97;131122;1254;105792;-72
2023/03/31 00:31:43;;;;;;;11.10;6.20;;;;;;;10.55;81.03;99045.34;131028;1263;107532;-72
2023/03/31 00:34:48;;;;;;;10.50;6.90;;;;;;;10.58;80.88;99054.03;131096;1253;107997;-72
2023/03/31 00:37:56;;;;;;;9.20;6.20;;;;;;;10.59;80.86;99059.66;131125;1253;107527;-71
2023/03/31 00:41:02;;;;;;;8.00;6.40;;;;;;;10.58;80.65;99056.17;131090;1251;107367;-72
2023/03/31 00:44:12;;;;;;;8.20;5.70;;;;;;;10.57;80.59;99058.42;131195;1264;107484;-71
2023/03/31 00:47:21;;;;;;;8.10;5.50;;;;;;;10.53;80.49;99059.80;131298;1259;107385;-71
2023/03/31 00:50:30;;;;;;;8.00;6.30;;;;;;;10.54;81.03;99058.27;131188;1263;107464;-71
2023/03/31 00:53:37;;;;;;;8.70;5.80;;;;;;;10.57;80.89;99060.05;131044;1256;107453;-74
2023/03/31 00:56:46;;;;;;;8.20;6.10;;;;;;;10.60;80.72;99057.23;131119;1254;107513;-72
2023/03/31 00:59:56;;;;;;;8.80;6.20;;;;;;;10.62;81.04;99053.15;131072;1257;107643;-71
2023/03/31 01:03:06;;;;;;;8.20;6.40;;;;;;;10.62;80.86;99054.91;131143;1254;107209;-72
2023/03/31 01:06:13;;;;;;;8.30;5.70;;;;;;;10.57;81.09;99051.88;131211;1263;107572;-72
2023/03/31 01:09:19;;;;;;;7.60;5.70;;;;;;;10.54;80.76;99049.98;131264;1253;107385;-72
2023/03/31 01:12:26;;;;;;;9.20;5.80;;;;;;;10.54;81.05;99051.52;131126;1258;105798;-71
2023/03/31 01:15:32;;;;;;;7.20;5.90;;;;;;;10.54;80.94;99049.88;131220;1256;107557;-72
2023/03/31 01:18:38;;;;;;;8.80;6.10;;;;;;;10.57;81.07;99050.09;131207;1263;106714;-72
2023/03/31 01:22:23;;;;;;;9.10;6.60;;;;;;;10.58;81.11;99049.60;131316;1253;106417;-72
2023/03/31 01:26:10;;;;;;;9.20;6.00;;;;;;;10.55;81.10;99049.98;131055;1254;107558;-72
2023/03/31 01:29:39;;;;;;;7.40;5.00;;;;;;;10.50;80.97;99050.06;130991;1254;107485;-72
2023/03/31 01:33:34;;;;;;;7.40;5.70;;;;;;;10.47;80.96;99048.79;131155;1257;107554;-73
2023/03/31 01:37:28;;;;;;;6.50;5.40;;;;;;;10.47;80.68;99050.03;130751;1257;108033;-72
2023/03/31 01:40:57;;;;;;;9.50;6.70;;;;;;;10.50;80.98;99053.83;131280;1254;107356;-72
2023/03/31 01:44:11;;;;;;;7.80;6.90;;;;;;;10.46;80.76;99063.20;131298;1264;107461;-72
2023/03/31 01:47:21;;;;;;;;;;;;;;;10.39;81.19;99066.67;131182;1253;107411;-73
2023/03/31 01:50:34;;;;;;;9.00;6.70;;;;;;;10.36;80.99;99065.07;131126;1264;107450;-73
2023/03/31 01:53:49;;;;;;;8.80;6.20;;;;;;;10.33;80.95;99071.86;131036;1263;107513;-73
2023/03/31 01:56:58;;;;;;;7.90;5.40;;;;;;;10.28;81.47;99074.75;131123;1251;107520;-72
2023/03/31 02:00:10;;;;;;;8.40;6.40;;;;;;;10.23;81.45;99072.50;131180;1255;107452;-71
2023/03/31 02:03:22;;;;;;;8.40;6.60;;;;;;;10.18;81.23;99068.02;131286;1251;107540;-71
2023/03/31 02:06:33;;;;;;;8.70;6.40;;;;;;;10.11;81.31;99070.21;131457;1251;107517;-72
2023/03/31 02:09:44;;;;;;;9.00;6.70;;;;;;;10.03;81.58;99070.32;131413;1254;107201;-73
2023/03/31 02:12:52;;;;;;;8.60;6.70;;;;;;;9.92;81.83;99075.63;131150;1265;107414;-73
2023/03/31 02:16:02;;;;;;;8.30;6.30;;;;;;;9.82;81.74;99074.67;131275;1256;107549;-73
2023/03/31 02:19:12;;;;;;;7.20;5.80;;;;;;;9.75;81.98;99072.81;131324;1251;107350;-73
2023/03/31 02:22:21;;;;;;;8.10;6.30;;;;;;;9.70;82.04;99071.98;131379;1253;107412;-74
2023/03/31 02:25:35;;;;;;;8.50;6.20;;;;;;;9.69;81.84;99064.63;131365;1251;107214;-72
2023/03/31 02:28:41;;;;;;;9.40;7.10;;;;;;;9.71;82.11;99063.20;131268;1254;107442;-71
2023/03/31 02:31:55;;;;;;;9.60;7.00;;;;;;;9.69;82.48;99064.42;131055;1254;107538;-71
2023/03/31 02:35:01;;;;;;;8.20;6.20;;;;;;;9.63;82.00;99060.67;131296;1257;107895;-71
2023/03/31 02:38:07;;;;;;;7.70;5.90;;;;;;;9.60;81.80;99061.23;131386;1254;108197;-70
2023/03/31 02:41:12;;;;;;;12.80;7.20;;;;;;;9.61;82.14;99065.25;131273;1253;107520;-72
2023/03/31 02:44:19;;;;;;;9.60;7.00;;;;;;;9.65;82.31;99068.25;131275;1255;107282;-74
2023/03/31 02:47:24;;;;;;;9.00;7.20;;;;;;;9.71;82.94;99071.02;131338;1251;107514;-72
2023/03/31 02:50:43;;;;;;;10.30;7.80;;;;;;;9.72;82.72;99067.27;131390;1253;108708;-71
2023/03/31 02:54:04;;;;;;;9.10;7.80;;;;;;;9.73;82.41;99062.04;131276;1263;108053;-73
2023/03/31 02:57:52;;;;;;;7.40;6.20;;;;;;;9.70;82.26;99063.52;131154;1255;108582;-72
2023/03/31 03:01:18;;;;;;;8.00;5.70;;;;;;;9.64;82.48;99057.36;130971;1257;107897;-71
2023/03/31 03:04:43;;;;;;;10.90;6.60;;;;;;;9.62;82.40;99060.81;131289;1255;107979;-71
2023/03/31 03:07:56;;;;;;;12.00;9.10;;;;;;;9.67;82.51;99061.81;131312;1263;107617;-71
2023/03/31 03:11:11;;;;;;;10.50;7.50;;;;;;;9.73;82.62;99060.64;131267;1251;107284;-70
2023/03/31 03:14:26;;;;;;;11.60;8.30;;;;;;;9.75;82.46;99053.23;131343;1264;107533;-71
2023/03/31 03:17:36;;;;;;;10.60;8.20;;;;;;;9.78;82.53;99064.84;131317;1256;107468;-71
2023/03/31 03:20:47;;;;;;;11.40;7.10;;;;;;;9.75;83.05;99061.63;131349;1263;107618;-70
2023/03/31 03:23:53;;;;;;;8.80;6.20;;;;;;;9.74;82.58;99065.14;131274;1264;107382;-73
2023/03/31 03:26:59;;;;;;;10.90;7.70;;;;;;;9.77;82.31;99069.23;131365;1251;106295;-72
2023/03/31 03:30:07;;;;;;;10.60;7.70;;;;;;;9.79;82.60;99074.08;131319;1255;107465;-71
2023/03/31 03:33:15;;;;;;;10.60;7.80;;;;;;;9.83;82.66;99070.33;131422;1254;107393;-71
2023/03/31 03:36:22;;;;;;;11.40;8.70;;;;;;;9.86;82.72;99065.71;131390;1251;106250;-71
2023/03/31 03:39:28;;;;;;;9.70;8.40;;;;;;;9.88;82.33;99065.14;131346;1251;107813;-71
2023/03/31 03:42:34;;;;;;;11.30;7.80;;;;;;;9.88;82.40;99064.57;131263;1253;106543;-71
2023/03/31 03:45:39;;;;;;;8.90;7.00;;;;;;;9.87;82.55;99064.53;131250;1254;106818;-71
2023/03/31 03:48:45;;;;;;;9.70;8.00;;;;;;;9.89;82.71;99063.47;131356;1251;108118;-72
2023/03/31 03:51:50;;;;;;;11.20;8.40;;;;;;;9.91;82.47;99063.70;131364;1251;108108;-71
2023/03/31 03:54:56;;;;;;;11.60;7.80;;;;;;;9.95;82.28;99070.17;131438;1253;107555;-72
2023/03/31 03:58:01;;;;;;;10.10;8.00;;;;;;;9.97;82.42;99074.42;131377;1251;107537;-71
2023/03/31 04:01:07;;;;;;;14.30;8.90;;;;;;;9.98;82.17;99070.02;131170;1262;107486;-71
2023/03/31 04:04:12;;;;;;;10.80;7.70;;;;;;;9.96;82.37;99075.70;131251;1251;107260;-71
2023/03/31 04:07:18;;;;;;;9.90;6.40;;;;;;;9.95;82.54;99075.66;131247;1253;108080;-70
2023/03/31 04:10:23;;;;;;;10.20;7.50;;;;;;;9.97;82.72;99075.10;131335;1257;106547;-70
2023/03/31 04:13:29;;;;;;;11.70;8.00;;;;;;;10.02;82.43;99077.89;131272;1254;107572;-71
2023/03/31 04:16:34;;;;;;;10.10;8.90;;;;;;;10.06;82.49;99070.69;131252;1254;107615;-71
2023/03/31 04:19:41;;;;;;;11.70;8.80;;;;;;;10.09;82.39;99066.92;131401;1253;106745;-71
2023/03/31 04:22:49;;;;;;;11.80;9.40;;;;;;;10.10;82.24;99060.96;131300;1254;107260;-71
2023/03/31 04:25:55;;;;;;;13.00;10.60;;;;;;;10.08;82.64;99053.58;131255;1254;108070;-70
2023/03/31 04:29:01;;;;;;;13.10;9.80;;;;;;;10.02;82.56;99063.87;131177;1261;107451;-73
2023/03/31 04:32:07;;;;;;;13.60;9.80;;;;;;;9.97;82.63;99065.63;131269;1255;107373;-73
2023/03/31 04:35:14;;;;;;;14.30;11.20;;;;;;;9.98;82.82;99066.02;131276;1264;107519;-73
2023/03/31 04:38:21;;;;;;;15.00;11.00;;;;;;;10.03;82.54;99060.48;131266;1254;107358;-72
2023/03/31 04:41:27;;;;;;;16.80;13.60;;;;;;;10.08;82.58;99059.78;131307;1254;107417;-72
2023/03/31 04:44:32;;;;;;;19.80;14.20;;;;;;;10.11;82.37;99053.11;131353;1263;107440;-72
2023/03/31 04:47:38;;;;;;;19.10;15.50;;;;;;;10.12;82.46;99054.16;131415;1254;107532;-73
2023/03/31 04:50:46;;;;;;;19.20;13.40;;;;;;;10.10;82.37;99049.44;131292;1264;107379;-72
2023/03/31 04:53:51;;;;;;;16.40;12.30;;;;;;;10.09;82.51;99049.66;131390;1254;107351;-73
2023/03/31 04:56:57;;;;;;;20.30;15.70;;;;;;;10.11;82.59;99045.03;131350;1254;107456;-73
2023/03/31 05:00:06;;;;;;;20.50;16.20;;;;;;;10.14;82.52;99043.97;130966;1254;107511;-72
2023/03/31 05:03:12;;;;;;;21.50;17.50;;;;;;;10.16;82.36;99039.79;131331;1254;107264;-71
2023/03/31 05:06:18;;;;;;;23.50;17.90;;;;;;;10.18;82.46;99034.77;131273;1255;107614;-72
2023/03/31 05:09:23;;;;;;;23.40;18.90;;;;;;;10.19;82.57;99026.30;131233;1251;107221;-72
2023/03/31 05:12:29;;;;;;;23.80;18.90;;;;;;;10.21;82.70;99016.56;131184;1254;107437;-72
2023/03/31 05:15:37;;;;;;;22.20;16.60;;;;;;;10.27;82.54;99015.30;131138;1252;106910;-73
2023/03/31 05:18:43;;;;;;;20.80;14.80;;;;;;;10.32;82.77;99015.77;131183;1254;107250;-71
2023/03/31 05:21:49;;;;;;;22.90;18.40;;;;;;;10.38;82.50;99020.19;131321;1252;107232;-71
2023/03/31 05:24:54;;;;;;;22.10;17.90;;;;;;;10.44;82.26;99020.23;131334;1250;107607;-71
2023/03/31 05:28:01;;;;;;;21.60;17.40;;;;;;;10.48;82.48;99014.05;131280;1254;107550;-71
2023/03/31 05:31:08;;;;;;;21.50;17.70;;;;;;;10.53;82.52;99014.89;131421;1251;106885;-71
2023/03/31 05:34:13;;;;;;;22.20;18.40;;;;;;;10.57;82.08;99017.62;131448;1251;107247;-71
2023/03/31 05:37:19;;;;;;;22.20;17.90;;;;;;;10.60;82.46;99014.88;131386;1253;108244;-72
2023/03/31 05:40:25;;;;;;;25.70;18.50;;;;;;;10.61;82.21;99016.95;131200;1254;107234;-71
2023/03/31 05:43:30;;;;;;;17.30;14.10;;;;;;;10.57;81.94;99003.67;131401;1264;107577;-72
2023/03/31 05:46:36;;;;;;;19.10;15.90;;;;;;;10.64;82.24;99003.48;131219;1254;107519;-75
2023/03/31 05:49:42;;;;;;;21.90;17.00;;;;;;;10.74;81.95;99004.89;131188;1251;107608;-71
2023/03/31 05:52:47;;;;;;;19.80;17.10;;;;;;;10.82;81.79;98999.98;131219;1252;106512;-73
2023/03/31 05:55:58;;;;;;;20.40;17.00;;;;;;;10.92;81.69;99000.06;131100;1253;107485;-73
2023/03/31 05:59:04;;;;;;;20.70;17.50;;;;;;;11.00;81.38;99006.08;131370;1253;107553;-71
2023/03/31 06:02:12;;;;;;;22.50;16.90;;;;;;;11.08;81.41;99009.01;131362;1253;107224;-72
2023/03/31 06:05:18;;;;;;;18.90;13.70;;;;;;;11.14;81.31;99002.52;131330;1253;107640;-72
2023/03/31 06:08:24;;;;;;;17.30;13.50;;;;;;;11.21;81.48;99003.66;131342;1250;106397;-72
2023/03/31 06:11:29;;;;;;;16.60;13.40;;;;;;;11.27;80.98;99005.41;131237;1251;107519;-72
2023/03/31 06:14:35;;;;;;;15.30;12.80;;;;;;;11.30;81.02;99008.77;131130;1254;106893;-71
2023/03/31 06:17:40;;;;;;;16.60;13.50;;;;;;;11.33;80.90;99010.16;131177;1254;107555;-71
2023/03/31 06:20:46;;;;;;;16.20;12.80;;;;;;;11.38;81.10;99012.54;131155;1251;107477;-71
2023/03/31 06:23:54;;;;;;;13.90;11.40;;;;;;;11.45;81.10;99008.02;131070;1253;107431;-71
2023/03/31 06:27:00;;;;;;;13.70;10.80;;;;;;;11.51;81.01;99004.23;131331;1252;107216;-71
2023/03/31 06:30:07;;;;;;;14.20;10.80;;;;;;;11.53;80.70;99003.81;131351;1254;107487;-71
2023/03/31 06:33:13;;;;;;;11.80;9.80;;;;;;;11.53;81.04;99002.88;131139;1254;107560;-72
2023/03/31 06:36:21;;;;;;;11.00;8.40;;;;;;;11.50;80.59;98996.54;131157;1251;108647;-71
2023/03/31 06:39:27;;;;;;;11.00;7.50;;;;;;;11.48;80.78;98995.73;131173;1253;107250;-71
2023/03/31 06:42:33;;;;;;;12.00;8.90;;;;;;;11.51;80.64;98990.91;131286;1251;107616;-71
2023/03/31 06:45:39;;;;;;;10.70;7.80;;;;;;;11.54;80.78;98990.17;131443;1254;107233;-71
2023/03/31 06:48:45;;;;;;;11.60;8.60;;;;;;;11.60;80.80;98984.25;131141;1254;107345;-71
2023/03/31 06:51:51;;;;;;;10.00;8.00;;;;;;;11.68;80.55;98984.34;131167;1252;106731;-72
2023/03/31 06:54:56;;;;;;;15.60;9.70;;;;;;;11.75;80.46;98990.91;131405;1253;106488;-71
2023/03/31 06:58:02;;;;;;;10.20;8.00;;;;;;;11.78;80.05;98991.75;131401;1251;107489;-71
2023/03/31 07:01:09;;;;;;;11.10;8.00;;;;;;;11.80;80.14;98991.19;131140;1251;108082;-72
2023/03/31 07:04:15;;;;;;;10.40;7.30;;;;;;;11.76;80.06;98988.08;131456;1251;107507;-72
2023/03/31 07:07:21;;;;;;;9.40;7.00;;;;;;;11.76;79.94;98990.86;131204;1252;107261;-72
2023/03/31 07:10:28;;;;;;;8.30;6.00;;;;;;;11.74;79.95;98988.42;131314;1251;110238;-72
2023/03/31 07:13:37;;;;;;;8.60;6.40;;;;;;;11.74;79.90;98988.21;131195;1255;105719;-72
2023/03/31 07:16:42;;;;;;;9.20;6.70;;;;;;;11.76;79.76;98989.84;131260;1254;106526;-71
2023/03/31 07:19:48;;;;;;;8.40;6.20;;;;;;;11.80;79.83;98990.36;131262;1254;107469;-71
2023/03/31 07:22:54;;;;;;;9.90;7.00;;;;;;;11.85;79.47;98991.36;131220;1253;105722;-71
2023/03/31 07:26:01;;;;;;;9.10;6.00;;;;;;;11.82;79.54;98990.33;131280;1252;107556;-71
2023/03/31 07:29:07;;;;;;;8.90;6.20;;;;;;;11.83;79.40;98989.37;131234;1254;108347;-72
2023/03/31 07:32:13;;;;;;;8.60;5.60;;;;;;;11.87;79.35;98986.48;131294;1251;107431;-72
2023/03/31 07:35:19;;;;;;;7.90;5.60;;;;;;;11.89;79.42;98983.27;131314;1251;107336;-72
2023/03/31 07:38:24;;;;;;;8.70;6.00;;;;;;;11.90;79.28;98981.56;131219;1253;107396;-72
2023/03/31 07:41:30;;;;;;;10.40;5.80;;;;;;;11.94;79.26;98983.82;131133;1250;107514;-72
2023/03/31 07:44:37;;;;;;;7.70;4.90;;;;;;;11.96;79.28;98980.54;131178;1254;107344;-72
2023/03/31 07:47:43;;;;;;;8.30;5.50;;;;;;;12.05;79.22;98975.01;131183;1253;106532;-72
2023/03/31 07:50:50;;;;;;;8.00;5.20;;;;;;;12.18;79.23;98972.60;131450;1253;107558;-72
2023/03/31 07:54:05;;;;;;;7.80;5.00;;;;;;;12.30;78.91;98971.94;131099;1254;108775;-72
2023/03/31 07:57:11;;;;;;;7.90;5.40;;;;;;;12.40;78.65;98981.34;131382;1249;107569;-71
2023/03/31 08:00:19;;;;;;;7.20;4.80;;;;;;;12.46;78.42;98975.59;131375;1253;107677;-72
2023/03/31 08:03:25;;;;;;;7.60;5.20;;;;;;;12.50;78.37;98970.95;131288;1253;107494;-71
2023/03/31 08:06:31;;;;;;;8.90;5.70;;;;;;;12.52;78.07;98964.46;131054;1257;107502;-71
2023/03/31 08:09:36;;;;;;;7.90;5.20;;;;;;;12.54;77.97;98957.65;131068;1253;107443;-71
2023/03/31 08:12:42;;;;;;;6.90;5.20;;;;;;;12.58;77.91;98954.20;131229;1249;107461;-71
2023/03/31 08:15:48;;;;;;;7.30;4.60;;;;;;;12.64;77.78;98955.42;131387;1254;108103;-72
2023/03/31 08:18:53;;;;;;;8.50;4.80;;;;;;;12.69;77.24;98957.06;131391;1253;107542;-72
2023/03/31 08:21:59;;;;;;;7.80;4.70;;;;;;;12.74;77.60;98955.98;131080;1264;107465;-72
2023/03/31 08:25:06;;;;;;;7.40;4.30;;;;;;;12.82;77.49;98956.95;131084;1253;107305;-71
2023/03/31 08:28:12;;;;;;;7.20;4.50;;;;;;;12.89;77.11;98952.41;131123;1251;107285;-72
2023/03/31 08:31:20;;;;;;;6.60;4.60;;;;;;;12.98;77.06;98948.66;131208;1251;107359;-72
2023/03/31 08:34:26;;;;;;;7.00;4.60;;;;;;;13.10;77.05;98938.88;131200;1253;106787;-71
2023/03/31 08:37:31;;;;;;;7.40;4.80;;;;;;;13.26;76.87;98924.80;131376;1264;107387;-71
2023/03/31 08:40:45;;;;;;;7.80;5.00;;;;;;;13.41;76.68;98924.35;131136;1251;107680;-72
2023/03/31 08:43:53;;;;;;;8.30;5.20;;;;;;;13.55;76.55;98926.10;131140;1253;107225;-72
2023/03/31 08:47:01;;;;;;;6.90;5.00;;;;;;;13.64;76.26;98925.65;131153;1253;107769;-72
2023/03/31 08:50:12;;;;;;;8.90;5.00;;;;;;;13.71;76.20;98919.42;131335;1251;108666;-72
2023/03/31 08:53:25;;;;;;;8.20;5.90;;;;;;;13.78;75.94;98911.54;131099;1253;107473;-72
2023/03/31 08:56:37;;;;;;;8.50;5.30;;;;;;;13.82;75.90;98911.73;131169;1253;107609;-72
2023/03/31 08:59:45;;;;;;;8.80;5.40;;;;;;;13.86;75.67;98911.33;131370;1265;107530;-72
2023/03/31 09:02:55;;;;;;;6.20;5.00;;;;;;;13.90;75.42;98912.73;131297;1253;107268;-72
2023/03/31 09:06:05;;;;;;;7.20;5.20;;;;;;;13.95;75.04;98908.39;131339;1253;107471;-72
2023/03/31 09:09:24;;;;;;;7.80;4.90;;;;;;;14.01;75.50;98904.84;131195;1254;107375;-72
2023/03/31 09:12:41;;;;;;;7.70;5.00;;;;;;;14.17;74.79;98899.16;131232;1253;107417;-72
2023/03/31 09:15:53;;;;;;;8.90;5.00;;;;;;;14.26;74.74;98891.33;131299;1253;107516;-73
2023/03/31 09:19:01;;;;;;;9.60;4.90;;;;;;;14.40;75.03;98884.15;131338;1251;107407;-72
2023/03/31 09:22:15;;;;;;;8.10;4.50;;;;;;;14.50;74.38;98876.48;131271;1253;107367;-72
2023/03/31 09:25:25;;;;;;;5.90;4.50;;;;;;;14.64;74.39;98872.98;131369;1253;107366;-73
2023/03/31 09:28:36;;;;;;;7.50;4.90;;;;;;;14.78;73.73;98873.25;131208;1253;108658;-72
2023/03/31 09:31:45;;;;;;;7.30;4.90;;;;;;;14.83;73.16;98868.06;131402;1250;107555;-72
2023/03/31 09:34:53;;;;;;;8.10;5.20;;;;;;;14.89;73.46;98875.92;131436;1251;107228;-72
2023/03/31 09:37:59;;;;;;;7.90;4.80;;;;;;;14.98;72.96;98868.52;131363;1250;107267;-73
2023/03/31 09:41:05;;;;;;;7.10;5.20;;;;;;;15.03;73.16;98866.92;131221;1251;107517;-73
2023/03/31 09:44:22;;;;;;;10.40;4.70;;;;;;;15.00;72.42;98865.02;131342;1253;106702;-72
2023/03/31 09:47:37;;;;;;;8.50;5.20;;;;;;;15.00;72.67;98859.13;131194;1253;107497;-72
2023/03/31 09:50:48;;;;;;;6.70;4.90;;;;;;;15.02;72.65;98855.02;131192;1253;107364;-72
2023/03/31 09:54:01;;;;;;;8.70;5.50;;;;;;;15.09;72.73;98852.70;131165;1249;107560;-72
2023/03/31 09:57:23;;;;;;;7.00;5.00;;;;;;;15.25;72.19;98851.55;131207;1253;107472;-73
2023/03/31 10:00:28;;;;;;;;;;;;;;;15.55;72.27;98842.42;131185;1250;109321;-72
2023/03/31 10:03:42;;;;;;;7.90;4.90;;;;;;;15.87;71.40;98832.93;131314;1251;107225;-72
2023/03/31 10:06:49;;;;;;;8.60;5.70;;;;;;;16.15;71.06;98827.96;131398;1255;107364;-72
2023/03/31 10:09:56;;;;;;;6.60;4.30;;;;;;;16.27;69.32;98824.29;131116;1253;107382;-72
2023/03/31 10:13:09;;;;;;;8.20;4.70;;;;;;;16.34;69.86;98823.77;131142;1253;107319;-74
2023/03/31 10:16:21;;;;;;;6.70;4.50;;;;;;;16.47;69.96;98816.56;131393;1250;107577;-72
2023/03/31 10:19:29;;;;;;;7.10;5.00;;;;;;;16.59;69.17;98814.50;131190;1253;107583;-72
2023/03/31 10:22:42;;;;;;;6.60;4.20;;;;;;;16.63;68.84;98815.80;131243;1250;108719;-72
2023/03/31 10:25:49;;;;;;;6.80;4.10;;;;;;;16.64;68.67;98811.75;131317;1250;107278;-72
2023/03/31 10:28:55;;;;;;;6.70;4.20;;;;;;;16.65;68.17;98803.31;131365;1251;107252;-72
2023/03/31 10:32:10;;;;;;;6.10;4.20;;;;;;;16.67;67.46;98798.73;131419;1249;107713;-72
2023/03/31 10:35:25;;;;;;;5.40;4.10;;;;;;;16.79;68.33;98792.44;131160;1253;106870;-73
2023/03/31 10:38:35;;;;;;;7.40;3.90;;;;;;;16.91;68.02;98791.63;131163;1253;107488;-72
2023/03/31 10:41:40;;;;;;;5.40;3.40;;;;;;;16.91;67.76;98783.95;131089;1254;107487;-74
2023/03/31 10:44:46;;;;;;;5.90;4.00;;;;;;;16.92;67.79;98780.34;131130;1253;107542;-73
2023/03/31 10:47:54;;;;;;;5.20;3.40;;;;;;;16.96;67.06;98779.29;131332;1252;105861;-73
2023/03/31 10:51:05;;;;;;;5.90;3.50;;;;;;;17.00;67.38;98772.55;131425;1249;107275;-73
2023/03/31 10:54:12;;;;;;;5.70;3.60;;;;;;;17.13;67.03;98770.51;131439;1252;107207;-73
2023/03/31 10:57:25;;;;;;;5.30;3.30;;;;;;;17.24;67.10;98761.12;131372;1253;107812;-73
2023/03/31 11:00:36;;;;;;;4.80;3.30;;;;;;;17.29;66.81;98757.23;131372;1251;107220;-74
2023/03/31 11:04:12;;;;;;;6.30;3.50;;;;;;;17.28;66.03;98761.38;131193;1255;107425;-76
2023/03/31 11:07:35;;;;;;;4.60;3.20;;;;;;;17.21;65.69;98754.38;131170;1253;107247;-74
2023/03/31 11:10:58;;;;;;;6.30;3.00;;;;;;;17.24;66.09;98750.89;131287;1251;107407;-73
2023/03/31 11:14:10;;;;;;;5.70;3.20;;;;;;;17.17;65.87;98746.67;131295;1251;107251;-74
2023/03/31 11:17:27;;;;;;;6.40;4.30;;;;;;;17.11;65.46;98737.42;131089;1264;107382;-71
2023/03/31 11:20:39;;;;;;;6.50;3.50;;;;;;;16.95;64.39;98728.67;131199;1253;107439;-73
2023/03/31 11:23:49;;;;;;;6.40;2.80;;;;;;;16.77;65.21;98738.50;131076;1253;107481;-73
2023/03/31 11:27:01;;;;;;;5.20;2.90;;;;;;;16.70;65.08;98737.03;131242;1253;107365;-74
2023/03/31 11:30:13;;;;;;;4.90;3.00;;;;;;;16.64;64.20;98736.45;131404;1250;107392;-73
2023/03/31 11:33:33;;;;;;;5.50;2.80;;;;;;;16.62;64.48;98733.52;131175;1253;107417;-73
2023/03/31 11:36:50;;;;;;;5.30;3.10;;;;;;;16.67;64.22;98732.52;131456;1251;107196;-73
2023/03/31 11:40:06;;;;;;;5.10;2.80;;;;;;;16.75;64.52;98722.28;131313;1255;107246;-73
2023/03/31 11:43:21;;;;;;;4.50;2.80;;;;;;;16.91;64.34;98717.43;131278;1251;107238;-74
2023/03/31 11:46:32;;;;;;;5.70;3.10;;;;;;;17.01;64.05;98719.61;131159;1251;107232;-73
2023/03/31 11:49:40;;;;;;;4.90;2.70;;;;;;;17.05;63.61;98719.85;131177;1250;107542;-73
2023/03/31 11:52:53;;;;;;;5.30;2.50;;;;;;;17.09;63.35;98713.55;131315;1253;107625;-73
2023/03/31 11:56:01;;;;;;;3.90;2.60;;;;;;;17.20;63.15;98715.33;131142;1250;107276;-73
2023/03/31 11:59:12;;;;;;;4.60;2.70;;;;;;;17.28;62.98;98706.27;131131;1251;107255;-74
2023/03/31 12:02:20;;;;;;;2.80;2.10;;;;;;;17.34;63.04;98705.91;131143;1252;107350;-73
2023/03/31 12:05:31;;;;;;;3.20;2.50;;;;;;;17.43;62.78;98691.40;131280;1252;108437;-73
2023/03/31 12:08:41;;;;;;;4.80;2.30;;;;;;;17.51;62.95;98688.06;131115;1253;172085;-73
2023/03/31 12:11:53;;;;;;;4.40;2.90;;;;;;;17.62;62.73;98686.52;131193;1253;107403;-73
2023/03/31 12:15:08;;;;;;;6.20;3.30;;;;;;;17.70;61.71;98684.70;131097;1253;106419;-74
2023/03/31 12:18:18;;;;;;;3.90;2.40;;;;;;;17.71;62.02;98675.55;131249;1254;107489;-74
2023/03/31 12:21:25;;;;;;;4.30;2.30;;;;;;;17.78;61.88;98671.27;131189;1250;107228;-73
2023/03/31 12:24:32;;;;;;;4.40;2.50;;;;;;;17.82;61.48;98667.31;131206;1251;107215;-73
2023/03/31 12:27:40;;;;;;;4.50;2.60;;;;;;;17.84;61.78;98659.74;131145;1254;107437;-74
2023/03/31 12:30:47;;;;;;;4.60;2.60;;;;;;;17.81;61.67;98655.47;131212;1254;106281;-74
2023/03/31 12:34:01;;;;;;;3.50;2.20;;;;;;;17.74;61.29;98654.45;131348;1262;107504;-74
2023/03/31 12:37:36;;;;;;;3.80;2.30;;;;;;;17.63;60.93;98648.99;131388;1250;107401;-73
2023/03/31 12:40:56;;;;;;;5.10;2.50;;;;;;;17.51;61.14;98644.59;131222;1253;106126;-74
2023/03/31 12:44:24;;;;;;;5.00;2.60;;;;;;;17.51;61.09;98642.05;131181;1253;107389;-71
2023/03/31 12:47:59;;;;;;;3.90;2.40;;;;;;;17.51;60.63;98638.39;131284;1252;107867;-73
2023/03/31 12:51:17;;;;;;;5.40;2.30;;;;;;;17.49;60.73;98636.62;131260;1253;107484;-73
2023/03/31 12:54:43;;;;;;;4.60;2.30;;;;;;;17.49;60.43;98635.02;131349;1253;107396;-73
2023/03/31 12:57:48;;;;;;;3.60;2.20;;;;;;;17.43;59.90;98628.63;131161;1251;107536;-73
2023/03/31 13:01:09;;;;;;;3.60;2.30;;;;;;;17.43;60.40;98626.20;131168;1253;108756;-73
2023/03/31 13:04:26;;;;;;;4.10;2.40;;;;;;;17.49;60.46;98622.35;131306;1257;107266;-71
2023/03/31 13:07:42;;;;;;;2.80;1.90;;;;;;;17.55;60.37;98618.58;131202;1253;107383;-71
2023/03/31 13:10:58;;;;;;;4.50;2.40;;;;;;;17.60;60.35;98614.15;131200;1254;107506;-71
2023/03/31 13:14:06;;;;;;;4.20;2.30;;;;;;;17.59;59.41;98608.86;131268;1253;106740;-71
2023/03/31 13:17:23;;;;;;;3.90;2.10;;;;;;;17.57;59.93;98599.91;131102;1253;107463;-72
2023/03/31 13:20:38;;;;;;;4.50;2.00;;;;;;;17.60;59.70;98593.23;131137;1251;107289;-71
2023/03/31 13:23:46;;;;;;;4.40;2.10;;;;;;;17.51;59.53;98590.67;131057;1253;107563;-72
2023/03/31 13:26:55;;;;;;;2.90;2.00;;;;;;;17.32;58.91;98580.79;131094;1253;107494;-72
2023/03/31 13:30:01;;;;;;;3.20;2.00;;;;;;;17.12;59.48;98578.11;131109;1253;107277;-71
2023/03/31 13:33:09;;;;;;;5.90;2.00;;;;;;;16.99;59.51;98573.20;131344;1251;107526;-71
2023/03/31 13:36:40;;;;;;;4.00;2.50;;;;;;;16.88;59.54;98574.31;131143;1251;107526;-71
2023/03/31 13:40:07;;;;;;;4.80;3.10;;;;;;;16.78;59.67;98575.09;131101;1253;107385;-71
2023/03/31 13:43:40;;;;;;;3.90;2.60;;;;;;;16.68;59.67;98573.65;131381;1253;107227;-71
2023/03/31 13:47:17;;;;;;;3.00;2.20;;;;;;;16.55;59.62;98568.73;131375;1253;107470;-72
2023/03/31 13:50:50;;;;;;;4.90;2.80;;;;;;;16.38;59.77;98574.63;131392;1261;107359;-73
2023/03/31 13:54:23;;;;;;;4.50;2.90;;;;;;;16.22;60.20;98573.05;131067;1253;107573;-71
2023/03/31 13:57:56;;;;;;;4.70;3.10;;;;;;;16.02;60.26;98588.15;130962;1253;107640;-72
2023/03/31 14:01:29;;;;;;;4.50;2.90;;;;;;;15.68;60.80;98595.11;131330;1250;107244;-74
2023/03/31 14:05:12;;;;;;;9.60;6.00;;;;;;;15.33;61.78;98586.20;131312;1253;107327;-71
2023/03/31 14:08:29;;;;;;;6.90;4.70;;;;;;;15.07;62.46;98590.32;131244;1253;107349;-71
2023/03/31 14:11:35;;;;;;;8.00;5.50;;;;;;;14.90;62.86;98583.38;131381;1251;107683;-71
2023/03/31 14:14:42;;;;;;;7.70;5.60;;;;;;;14.79;63.23;98580.90;131339;1253;107970;-71
2023/03/31 14:17:48;;;;;;;5.50;3.80;;;;;;;14.68;63.64;98570.10;131145;1253;107228;-71
2023/03/31 14:21:18;;;;;;;10.40;8.50;;;;;;;14.60;63.81;98559.52;131167;1251;107351;-71
2023/03/31 14:24:33;;;;;;;10.70;7.60;;;;;;;14.49;64.45;98555.88;131426;1253;107550;-71
2023/03/31 14:27:54;;;;;;;25.60;19.40;;;;;;;14.42;64.63;98553.29;131110;1253;108102;-71
2023/03/31 14:31:11;;;;;;;15.70;9.90;;;;;;;14.37;64.83;98544.38;131081;1254;107261;-72
2023/03/31 14:34:32;;;;;;;14.90;8.40;;;;;;;14.36;65.05;98539.67;131085;1253;107369;-70